sensor_id;sensor_type;location;lat;lon;timestamp;pressure;altitude;pressure_sealevel;temperature;humidity
3096;BME280;1558;42.700;23.360;2023-03-17T00:02:15;95516.69;;;1.07;100.00
3096;BME280;1558;42.700;23.360;2023-03-17T00:04:51;95520.94;;;1.08;100.00
3096;BME280;1558;42.700;23.360;2023-03-17T00:07:19;95517.50;;;1.13;100.00
3096;BME280;1558;42.700;23.360;2023-03-17T00:09:48;95521.19;;;1.12;100.00
3096;BME280;1558;42.700;23.360;2023-03-17T00:12:18;95524.66;;;1.17;100.00
3096;BME280;1558;42.700;23.360;2023-03-17T00:14:50;95526.50;;;1.17;100.00
3096;BME280;1558;42.700;23.360;2023-03-17T00:17:48;95521.72;;;1.19;100.00
3096;BME280;1558;42.700;23.360;2023-03-17T00:20:41;95516.97;;;1.21;100.00
3096;BME280;1558;42.700;23.360;2023-03-17T00:23:23;95529.69;;;1.19;100.00
3096;BME280;1558;42.700;23.360;2023-03-17T00:25:56;95524.41;;;1.14;100.00
3096;BME280;1558;42.700;23.360;2023-03-17T00:28:37;95524.38;;;1.19;100.00
3096;BME280;1558;42.700;23.360;2023-03-17T00:31:12;95524.94;;;1.21;100.00
3096;BME280;1558;42.700;23.360;2023-03-17T00:33:41;95528.13;;;1.23;100.00
3096;BME280;1558;42.700;23.360;2023-03-17T00:36:12;95528.13;;;1.23;100.00
3096;BME280;1558;42.700;23.360;2023-03-17T00:38:42;95525.47;;;1.23;100.00
3096;BME280;1558;42.700;23.360;2023-03-17T00:41:10;95533.44;;;1.23;100.00
3096;BME280;1558;42.700;23.360;2023-03-17T00:43:40;95520.16;;;1.28;100.00
3096;BME280;1558;42.700;23.360;2023-03-17T00:46:12;95529.69;;;1.34;100.00
3096;BME280;1558;42.700;23.360;2023-03-17T00:48:46;95521.72;;;1.29;100.00
3096;BME280;1558;42.700;23.360;2023-03-17T00:51:14;95526.78;;;1.30;100.00
3096;BME280;1558;42.700;23.360;2023-03-17T00:53:43;95529.16;;;1.37;100.00
3096;BME280;1558;42.700;23.360;2023-03-17T00:56:13;95535.00;;;1.29;100.00
3096;BME280;1558;42.700;23.360;2023-03-17T00:58:43;95532.63;;;1.27;100.00
3096;BME280;1558;42.700;23.360;2023-03-17T01:01:12;95536.09;;;1.28;100.00
3096;BME280;1558;42.700;23.360;2023-03-17T01:03:40;95534.47;;;1.32;100.00
3096;BME280;1558;42.700;23.360;2023-03-17T01:06:15;95534.47;;;1.32;100.00
3096;BME280;1558;42.700;23.360;2023-03-17T01:08:47;95529.16;;;1.27;100.00
3096;BME280;1558;42.700;23.360;2023-03-17T01:11:18;95540.84;;;1.31;100.00
3096;BME280;1558;42.700;23.360;2023-03-17T01:13:48;95536.34;;;1.31;100.00
3096;BME280;1558;42.700;23.360;2023-03-17T01:16:16;95530.22;;;1.31;100.00
3096;BME280;1558;42.700;23.360;2023-03-17T01:18:44;95539.28;;;1.35;100.00
3096;BME280;1558;42.700;23.360;2023-03-17T01:21:12;95534.19;;;1.38;100.00
3096;BME280;1558;42.700;23.360;2023-03-17T01:23:41;95539.78;;;1.37;100.00
3096;BME280;1558;42.700;23.360;2023-03-17T01:26:10;95542.44;;;1.32;100.00
3096;BME280;1558;42.700;23.360;2023-03-17T01:28:38;95545.63;;;1.34;100.00
3096;BME280;1558;42.700;23.360;2023-03-17T01:31:07;95542.97;;;1.29;100.00
3096;BME280;1558;42.700;23.360;2023-03-17T01:33:36;95536.63;;;1.35;100.00
3096;BME280;1558;42.700;23.360;2023-03-17T01:36:04;95539.78;;;1.37;100.00
3096;BME280;1558;42.700;23.360;2023-03-17T01:38:32;95542.97;;;1.34;100.00
3096;BME280;1558;42.700;23.360;2023-03-17T01:41:00;95536.84;;;1.38;100.00
3096;BME280;1558;42.700;23.360;2023-03-17T01:43:29;95540.59;;;1.38;100.00
3096;BME280;1558;42.700;23.360;2023-03-17T01:46:18;95543.50;;;1.36;100.00
3096;BME280;1558;42.700;23.360;2023-03-17T01:48:52;95540.31;;;1.39;100.00
3096;BME280;1558;42.700;23.360;2023-03-17T01:51:26;95545.09;;;1.42;100.00
3096;BME280;1558;42.700;23.360;2023-03-17T01:53:58;95545.91;;;1.38;100.00
3096;BME280;1558;42.700;23.360;2023-03-17T01:56:26;95546.97;;;1.36;100.00
3096;BME280;1558;42.700;23.360;2023-03-17T01:58:56;95548.56;;;1.43;100.00
3096;BME280;1558;42.700;23.360;2023-03-17T02:01:31;95552.00;;;1.43;100.00
3096;BME280;1558;42.700;23.360;2023-03-17T02:04:01;95546.69;;;1.38;100.00
3096;BME280;1558;42.700;23.360;2023-03-17T02:06:30;95553.31;;;1.46;100.00
3096;BME280;1558;42.700;23.360;2023-03-17T02:08:59;95552.00;;;1.43;100.00
3096;BME280;1558;42.700;23.360;2023-03-17T02:11:27;95561.03;;;1.47;100.00
3096;BME280;1558;42.700;23.360;2023-03-17T02:13:58;95557.59;;;1.42;100.00
3096;BME280;1558;42.700;23.360;2023-03-17T02:16:48;95559.97;;;1.48;100.00
3096;BME280;1558;42.700;23.360;2023-03-17T02:19:18;95568.22;;;1.47;100.00
3096;BME280;1558;42.700;23.360;2023-03-17T02:21:48;95565.81;;;1.55;100.00
3096;BME280;1558;42.700;23.360;2023-03-17T02:24:27;95556.50;;;1.58;100.00
3096;BME280;1558;42.700;23.360;2023-03-17T02:26:58;95572.19;;;1.59;100.00
3096;BME280;1558;42.700;23.360;2023-03-17T02:29:28;95558.38;;;1.52;100.00
3096;BME280;1558;42.700;23.360;2023-03-17T02:31:59;95567.13;;;1.48;100.00
3096;BME280;1558;42.700;23.360;2023-03-17T02:34:27;95563.19;;;1.40;100.00
3096;BME280;1558;42.700;23.360;2023-03-17T02:36:56;95566.09;;;1.44;100.00
3096;BME280;1558;42.700;23.360;2023-03-17T02:39:25;95570.88;;;1.47;100.00
3096;BME280;1558;42.700;23.360;2023-03-17T02:41:53;95577.00;;;1.52;100.00
3096;BME280;1558;42.700;23.360;2023-03-17T02:44:21;95572.72;;;1.46;100.00
3096;BME280;1558;42.700;23.360;2023-03-17T02:46:49;95578.03;;;1.51;100.00
3096;BME280;1558;42.700;23.360;2023-03-17T02:49:17;95577.75;;;1.48;100.00
3096;BME280;1558;42.700;23.360;2023-03-17T02:51:46;95587.34;;;1.44;100.00
3096;BME280;1558;42.700;23.360;2023-03-17T02:54:15;95589.72;;;1.45;100.00
3096;BME280;1558;42.700;23.360;2023-03-17T02:56:43;95592.94;;;1.37;100.00
3096;BME280;1558;42.700;23.360;2023-03-17T02:59:12;95584.69;;;1.38;100.00
3096;BME280;1558;42.700;23.360;2023-03-17T03:01:39;95592.41;;;1.35;100.00
3096;BME280;1558;42.700;23.360;2023-03-17T03:04:07;95588.41;;;1.38;100.00
3096;BME280;1558;42.700;23.360;2023-03-17T03:06:35;95590.53;;;1.35;100.00
3096;BME280;1558;42.700;23.360;2023-03-17T03:09:05;95593.97;;;1.31;100.00
3096;BME280;1558;42.700;23.360;2023-03-17T03:11:34;95591.34;;;1.26;100.00
3096;BME280;1558;42.700;23.360;2023-03-17T03:14:02;95597.19;;;1.28;100.00
3096;BME280;1558;42.700;23.360;2023-03-17T03:16:34;95601.97;;;1.26;100.00
3096;BME280;1558;42.700;23.360;2023-03-17T03:19:21;95606.19;;;1.22;100.00
3096;BME280;1558;42.700;23.360;2023-03-17T03:22:00;95600.38;;;1.25;100.00
3096;BME280;1558;42.700;23.360;2023-03-17T03:24:28;95611.25;;;1.28;100.00
3096;BME280;1558;42.700;23.360;2023-03-17T03:26:57;95605.16;;;1.33;100.00
3096;BME280;1558;42.700;23.360;2023-03-17T03:29:25;95618.69;;;1.36;100.00
3096;BME280;1558;42.700;23.360;2023-03-17T03:31:53;95619.50;;;1.42;100.00
3096;BME280;1558;42.700;23.360;2023-03-17T03:34:21;95604.59;;;1.41;100.00
3096;BME280;1558;42.700;23.360;2023-03-17T03:36:49;95619.50;;;1.42;100.00
3096;BME280;1558;42.700;23.360;2023-03-17T03:39:17;95619.50;;;1.47;100.00
3096;BME280;1558;42.700;23.360;2023-03-17T03:41:45;95614.44;;;1.46;100.00
3096;BME280;1558;42.700;23.360;2023-03-17T03:44:14;95615.50;;;1.45;100.00
3096;BME280;1558;42.700;23.360;2023-03-17T03:46:42;95613.63;;;1.50;100.00
3096;BME280;1558;42.700;23.360;2023-03-17T03:49:10;95624.25;;;1.50;100.00
3096;BME280;1558;42.700;23.360;2023-03-17T03:51:38;95620.56;;;1.56;100.00
3096;BME280;1558;42.700;23.360;2023-03-17T03:54:07;95627.47;;;1.47;100.00
3096;BME280;1558;42.700;23.360;2023-03-17T03:56:34;95619.75;;;1.41;100.00
3096;BME280;1558;42.700;23.360;2023-03-17T03:59:22;95624.28;;;1.40;100.00
3096;BME280;1558;42.700;23.360;2023-03-17T04:01:55;95617.09;;;1.41;100.00
3096;BME280;1558;42.700;23.360;2023-03-17T04:04:22;95625.34;;;1.44;100.00
3096;BME280;1558;42.700;23.360;2023-03-17T04:06:51;95641.28;;;1.44;100.00
3096;BME280;1558;42.700;23.360;2023-03-17T04:09:23;95637.56;;;1.40;100.00
3096;BME280;1558;42.700;23.360;2023-03-17T04:11:54;95642.31;;;1.38;100.00
3096;BME280;1558;42.700;23.360;2023-03-17T04:14:23;95648.19;;;1.40;100.00
3096;BME280;1558;42.700;23.360;2023-03-17T04:16:51;95652.97;;;1.43;100.00
3096;BME280;1558;42.700;23.360;2023-03-17T04:19:19;95649.50;;;1.48;100.00
3096;BME280;1558;42.700;23.360;2023-03-17T04:21:49;95655.38;;;1.45;100.00
3096;BME280;1558;42.700;23.360;2023-03-17T04:24:20;95645.00;;;1.43;100.00
3096;BME280;1558;42.700;23.360;2023-03-17T04:26:48;95652.72;;;1.45;100.00
3096;BME280;1558;42.700;23.360;2023-03-17T04:29:17;95652.94;;;1.38;100.00
3096;BME280;1558;42.700;23.360;2023-03-17T04:31:47;95653.75;;;1.38;100.00
3096;BME280;1558;42.700;23.360;2023-03-17T04:34:16;95655.38;;;1.40;100.00
3096;BME280;1558;42.700;23.360;2023-03-17T04:36:46;95653.50;;;1.40;100.00
3096;BME280;1558;42.700;23.360;2023-03-17T04:39:16;95656.16;;;1.40;100.00
3096;BME280;1558;42.700;23.360;2023-03-17T04:41:45;95662.81;;;1.38;100.00
3096;BME280;1558;42.700;23.360;2023-03-17T04:44:28;95667.56;;;1.41;100.00
3096;BME280;1558;42.700;23.360;2023-03-17T04:47:04;95666.81;;;1.40;100.00
3096;BME280;1558;42.700;23.360;2023-03-17T04:49:52;95673.69;;;1.41;100.00
3096;BME280;1558;42.700;23.360;2023-03-17T04:52:29;95672.63;;;1.37;100.00
3096;BME280;1558;42.700;23.360;2023-03-17T04:55:11;95671.56;;;1.33;100.00
3096;BME280;1558;42.700;23.360;2023-03-17T04:57:47;95679.28;;;1.34;100.00
3096;BME280;1558;42.700;23.360;2023-03-17T05:00:30;95675.53;;;1.41;100.00
3096;BME280;1558;42.700;23.360;2023-03-17T05:03:09;95677.94;;;1.37;100.00
3096;BME280;1558;42.700;23.360;2023-03-17T05:05:52;95677.94;;;1.32;100.00
3096;BME280;1558;42.700;23.360;2023-03-17T05:08:21;95681.94;;;1.40;100.00
3096;BME280;1558;42.700;23.360;2023-03-17T05:10:49;95692.28;;;1.36;100.00
3096;BME280;1558;42.700;23.360;2023-03-17T05:13:17;95708.22;;;1.36;100.00
3096;BME280;1558;42.700;23.360;2023-03-17T05:15:45;95699.19;;;1.37;100.00
3096;BME280;1558;42.700;23.360;2023-03-17T05:18:21;95704.53;;;1.42;100.00
3096;BME280;1558;42.700;23.360;2023-03-17T05:20:49;95707.97;;;1.38;100.00
3096;BME280;1558;42.700;23.360;2023-03-17T05:23:18;95706.91;;;1.44;100.00
3096;BME280;1558;42.700;23.360;2023-03-17T05:25:48;95713.84;;;1.45;100.00
3096;BME280;1558;42.700;23.360;2023-03-17T05:28:17;95719.91;;;1.45;100.00
3096;BME280;1558;42.700;23.360;2023-03-17T05:30:45;95727.88;;;1.45;100.00
3096;BME280;1558;42.700;23.360;2023-03-17T05:33:13;95718.06;;;1.46;100.00
3096;BME280;1558;42.700;23.360;2023-03-17T05:35:43;95716.50;;;1.45;100.00
3096;BME280;1558;42.700;23.360;2023-03-17T05:38:12;95724.47;;;1.50;100.00
3096;BME280;1558;42.700;23.360;2023-03-17T05:40:43;95723.66;;;1.49;100.00
3096;BME280;1558;42.700;23.360;2023-03-17T05:43:14;95726.88;;;1.56;100.00
3096;BME280;1558;42.700;23.360;2023-03-17T05:45:43;95726.59;;;1.58;100.00
3096;BME280;1558;42.700;23.360;2023-03-17T05:48:11;95725.53;;;1.54;100.00
3096;BME280;1558;42.700;23.360;2023-03-17T05:50:39;95733.78;;;1.62;100.00
3096;BME280;1558;42.700;23.360;2023-03-17T05:53:09;95727.41;;;1.58;100.00
3096;BME280;1558;42.700;23.360;2023-03-17T05:55:37;95735.38;;;1.63;100.00
3096;BME280;1558;42.700;23.360;2023-03-17T05:58:06;95734.84;;;1.66;100.00
3096;BME280;1558;42.700;23.360;2023-03-17T06:00:35;95734.31;;;1.69;100.00
3096;BME280;1558;42.700;23.360;2023-03-17T06:03:03;95739.38;;;1.76;100.00
3096;BME280;1558;42.700;23.360;2023-03-17T06:05:32;95750.81;;;1.81;100.00
3096;BME280;1558;42.700;23.360;2023-03-17T06:08:01;95755.59;;;1.79;100.00
3096;BME280;1558;42.700;23.360;2023-03-17T06:10:33;95760.91;;;1.79;100.00
3096;BME280;1558;42.700;23.360;2023-03-17T06:13:02;95765.41;;;1.79;100.00
3096;BME280;1558;42.700;23.360;2023-03-17T06:15:30;95767.28;;;1.83;100.00
3096;BME280;1558;42.700;23.360;2023-03-17T06:18:00;95773.41;;;1.84;100.00
3096;BME280;1558;42.700;23.360;2023-03-17T06:20:28;95771.28;;;1.81;100.00
3096;BME280;1558;42.700;23.360;2023-03-17T06:22:59;95780.06;;;1.91;100.00
3096;BME280;1558;42.700;23.360;2023-03-17T06:25:33;95768.63;;;2.01;100.00
3096;BME280;1558;42.700;23.360;2023-03-17T06:28:01;95772.63;;;2.03;100.00
3096;BME280;1558;42.700;23.360;2023-03-17T06:30:30;95775.28;;;2.09;100.00
3096;BME280;1558;42.700;23.360;2023-03-17T06:32:59;95782.19;;;2.10;100.00
3096;BME280;1558;42.700;23.360;2023-03-17T06:35:27;95783.28;;;2.09;100.00
3096;BME280;1558;42.700;23.360;2023-03-17T06:37:56;95771.03;;;2.13;100.00
3096;BME280;1558;42.700;23.360;2023-03-17T06:40:24;95777.94;;;2.24;100.00
3096;BME280;1558;42.700;23.360;2023-03-17T06:42:53;95784.84;;;2.25;100.00
3096;BME280;1558;42.700;23.360;2023-03-17T06:45:22;95783.81;;;2.16;100.00
3096;BME280;1558;42.700;23.360;2023-03-17T06:47:50;95787.25;;;2.21;100.00
3096;BME280;1558;42.700;23.360;2023-03-17T06:50:18;95790.19;;;2.25;100.00
3096;BME280;1558;42.700;23.360;2023-03-17T06:52:46;95788.06;;;2.37;100.00
3096;BME280;1558;42.700;23.360;2023-03-17T06:55:14;95790.72;;;2.32;100.00
3096;BME280;1558;42.700;23.360;2023-03-17T06:57:43;95791.75;;;2.36;100.00
3096;BME280;1558;42.700;23.360;2023-03-17T07:00:13;95793.38;;;2.32;100.00
3096;BME280;1558;42.700;23.360;2023-03-17T07:02:41;95803.75;;;2.43;100.00
3096;BME280;1558;42.700;23.360;2023-03-17T07:05:09;95794.97;;;2.33;100.00
3096;BME280;1558;42.700;23.360;2023-03-17T07:07:40;95769.94;;;2.29;100.00
3096;BME280;1558;42.700;23.360;2023-03-17T07:10:10;95798.13;;;2.50;100.00
3096;BME280;1558;42.700;23.360;2023-03-17T07:12:39;95806.41;;;2.43;100.00
3096;BME280;1558;42.700;23.360;2023-03-17T07:15:08;95802.41;;;2.51;100.00
3096;BME280;1558;42.700;23.360;2023-03-17T07:17:40;95806.16;;;2.45;100.00
3096;BME280;1558;42.700;23.360;2023-03-17T07:20:09;95801.31;;;2.62;100.00
3096;BME280;1558;42.700;23.360;2023-03-17T07:22:41;95804.25;;;2.70;100.00
3096;BME280;1558;42.700;23.360;2023-03-17T07:25:11;95810.91;;;2.63;100.00
3096;BME280;1558;42.700;23.360;2023-03-17T07:27:39;95805.59;;;2.53;100.00
3096;BME280;1558;42.700;23.360;2023-03-17T07:30:09;95805.88;;;2.61;100.00
3096;BME280;1558;42.700;23.360;2023-03-17T07:32:42;95805.28;;;2.80;100.00
3096;BME280;1558;42.700;23.360;2023-03-17T07:35:13;95821.03;;;2.66;100.00
3096;BME280;1558;42.700;23.360;2023-03-17T07:37:41;95812.50;;;2.69;100.00
3096;BME280;1558;42.700;23.360;2023-03-17T07:40:11;95808.75;;;2.80;100.00
3096;BME280;1558;42.700;23.360;2023-03-17T07:42:40;95822.31;;;2.79;100.00
3096;BME280;1558;42.700;23.360;2023-03-17T07:45:10;95820.47;;;2.74;100.00
3096;BME280;1558;42.700;23.360;2023-03-17T07:47:38;95818.28;;;3.01;100.00
3096;BME280;1558;42.700;23.360;2023-03-17T07:50:13;95819.31;;;3.15;100.00
3096;BME280;1558;42.700;23.360;2023-03-17T07:52:45;95825.13;;;3.27;100.00
3096;BME280;1558;42.700;23.360;2023-03-17T07:55:14;95811.69;;;3.53;100.00
3096;BME280;1558;42.700;23.360;2023-03-17T07:57:43;95824.97;;;3.68;100.00
3096;BME280;1558;42.700;23.360;2023-03-17T08:00:14;95830.59;;;3.61;100.00
3096;BME280;1558;42.700;23.360;2023-03-17T08:02:47;95831.81;;;3.79;100.00
3096;BME280;1558;42.700;23.360;2023-03-17T08:05:40;95824.56;;;3.89;100.00
3096;BME280;1558;42.700;23.360;2023-03-17T08:08:10;95830.69;;;3.90;100.00
3096;BME280;1558;42.700;23.360;2023-03-17T08:10:39;95832.28;;;3.96;100.00
3096;BME280;1558;42.700;23.360;2023-03-17T08:13:07;95835.41;;;4.08;100.00
3096;BME280;1558;42.700;23.360;2023-03-17T08:15:41;95836.03;;;4.29;100.00
3096;BME280;1558;42.700;23.360;2023-03-17T08:18:11;95847.50;;;4.34;100.00
3096;BME280;1558;42.700;23.360;2023-03-17T08:20:41;95836.41;;;4.17;100.00
3096;BME280;1558;42.700;23.360;2023-03-17T08:23:12;95843.00;;;4.30;100.00
3096;BME280;1558;42.700;23.360;2023-03-17T08:25:43;95834.53;;;4.18;100.00
3096;BME280;1558;42.700;23.360;2023-03-17T08:28:14;95833.66;;;4.27;100.00
3096;BME280;1558;42.700;23.360;2023-03-17T08:30:44;95835.78;;;4.30;100.00
3096;BME280;1558;42.700;23.360;2023-03-17T08:33:19;95807.03;;;4.17;100.00
3096;BME280;1558;42.700;23.360;2023-03-17T08:35:50;95830.75;;;4.57;100.00
3096;BME280;1558;42.700;23.360;2023-03-17T08:38:19;95807.22;;;4.59;100.00
3096;BME280;1558;42.700;23.360;2023-03-17T08:40:50;95831.72;;;4.66;100.00
3096;BME280;1558;42.700;23.360;2023-03-17T08:43:18;95819.31;;;4.80;100.00
3096;BME280;1558;42.700;23.360;2023-03-17T08:45:46;95835.75;;;4.93;100.00
3096;BME280;1558;42.700;23.360;2023-03-17T08:48:14;95792.84;;;4.84;100.00
3096;BME280;1558;42.700;23.360;2023-03-17T08:50:45;95827.34;;;5.04;100.00
3096;BME280;1558;42.700;23.360;2023-03-17T08:53:18;95824.41;;;5.06;100.00
3096;BME280;1558;42.700;23.360;2023-03-17T08:55:47;95826.63;;;4.99;100.00
3096;BME280;1558;42.700;23.360;2023-03-17T08:58:24;95822.41;;;5.16;100.00
3096;BME280;1558;42.700;23.360;2023-03-17T09:00:53;95834.00;;;5.07;100.00
3096;BME280;1558;42.700;23.360;2023-03-17T09:03:25;95830.56;;;5.06;100.00
3096;BME280;1558;42.700;23.360;2023-03-17T09:05:53;95832.25;;;5.21;100.00
3096;BME280;1558;42.700;23.360;2023-03-17T09:08:26;95833.41;;;5.62;100.00
3096;BME280;1558;42.700;23.360;2023-03-17T09:11:00;95830.06;;;5.94;100.00
3096;BME280;1558;42.700;23.360;2023-03-17T09:13:31;95828.09;;;5.57;100.00
3096;BME280;1558;42.700;23.360;2023-03-17T09:16:00;95827.91;;;5.72;100.00
3096;BME280;1558;42.700;23.360;2023-03-17T09:18:28;95835.19;;;5.90;100.00
3096;BME280;1558;42.700;23.360;2023-03-17T09:21:04;95823.69;;;5.90;100.00
3096;BME280;1558;42.700;23.360;2023-03-17T09:23:35;95831.81;;;6.03;100.00
3096;BME280;1558;42.700;23.360;2023-03-17T09:26:04;95833.56;;;6.13;100.00
3096;BME280;1558;42.700;23.360;2023-03-17T09:28:32;95845.72;;;6.05;100.00
3096;BME280;1558;42.700;23.360;2023-03-17T09:31:03;95834.75;;;6.02;100.00
3096;BME280;1558;42.700;23.360;2023-03-17T09:33:38;95841.28;;;6.14;100.00
3096;BME280;1558;42.700;23.360;2023-03-17T09:36:09;95832.00;;;6.26;100.00
3096;BME280;1558;42.700;23.360;2023-03-17T09:38:39;95842.44;;;6.46;100.00
3096;BME280;1558;42.700;23.360;2023-03-17T09:41:35;95840.03;;;6.26;100.00
3096;BME280;1558;42.700;23.360;2023-03-17T09:44:10;95838.97;;;6.27;100.00
3096;BME280;1558;42.700;23.360;2023-03-17T09:46:48;95836.72;;;6.34;100.00
3096;BME280;1558;42.700;23.360;2023-03-17T09:49:23;95813.72;;;6.14;100.00
3096;BME280;1558;42.700;23.360;2023-03-17T09:51:55;95848.16;;;6.39;100.00
3096;BME280;1558;42.700;23.360;2023-03-17T09:54:33;95846.41;;;6.48;100.00
3096;BME280;1558;42.700;23.360;2023-03-17T09:57:05;95848.22;;;6.53;100.00
3096;BME280;1558;42.700;23.360;2023-03-17T09:59:41;95852.19;;;6.55;100.00
3096;BME280;1558;42.700;23.360;2023-03-17T10:02:17;95696.88;;;5.67;100.00
3096;BME280;1558;42.700;23.360;2023-03-17T10:04:49;95827.94;;;6.79;100.00
3096;BME280;1558;42.700;23.360;2023-03-17T10:07:23;95844.09;;;7.06;100.00
3096;BME280;1558;42.700;23.360;2023-03-17T10:10:00;95848.19;;;7.17;100.00
3096;BME280;1558;42.700;23.360;2023-03-17T10:12:40;95841.69;;;6.91;100.00
3096;BME280;1558;42.700;23.360;2023-03-17T10:15:17;95760.53;;;6.07;100.00
3096;BME280;1558;42.700;23.360;2023-03-17T10:17:49;95840.09;;;6.90;100.00
3096;BME280;1558;42.700;23.360;2023-03-17T10:20:23;95842.34;;;6.83;100.00
3096;BME280;1558;42.700;23.360;2023-03-17T10:22:55;95741.69;;;6.45;100.00
3096;BME280;1558;42.700;23.360;2023-03-17T10:25:28;95842.13;;;7.25;100.00
3096;BME280;1558;42.700;23.360;2023-03-17T10:28:01;95830.88;;;6.96;100.00
3096;BME280;1558;42.700;23.360;2023-03-17T10:30:43;95835.28;;;7.06;100.00
3096;BME280;1558;42.700;23.360;2023-03-17T10:33:18;95702.41;;;6.40;100.00
3096;BME280;1558;42.700;23.360;2023-03-17T10:35:48;95832.00;;;7.22;100.00
3096;BME280;1558;42.700;23.360;2023-03-17T10:38:18;95827.31;;;7.14;100.00
3096;BME280;1558;42.700;23.360;2023-03-17T10:40:55;95835.88;;;7.30;100.00
3096;BME280;1558;42.700;23.360;2023-03-17T10:43:40;95824.66;;;7.28;100.00
3096;BME280;1558;42.700;23.360;2023-03-17T10:46:17;95785.22;;;7.15;100.00
3096;BME280;1558;42.700;23.360;2023-03-17T10:48:56;95829.31;;;7.49;100.00
3096;BME280;1558;42.700;23.360;2023-03-17T10:51:34;95815.31;;;7.39;100.00
3096;BME280;1558;42.700;23.360;2023-03-17T10:54:10;95813.63;;;7.57;100.00
3096;BME280;1558;42.700;23.360;2023-03-17T10:56:41;95807.25;;;7.53;100.00
3096;BME280;1558;42.700;23.360;2023-03-17T10:59:16;95800.28;;;7.51;100.00
3096;BME280;1558;42.700;23.360;2023-03-17T11:01:52;95784.78;;;7.62;100.00
3096;BME280;1558;42.700;23.360;2023-03-17T11:04:28;95787.34;;;7.81;100.00
3096;BME280;1558;42.700;23.360;2023-03-17T11:06:58;95772.72;;;7.73;100.00
3096;BME280;1558;42.700;23.360;2023-03-17T11:09:34;95699.97;;;6.98;100.00
3096;BME280;1558;42.700;23.360;2023-03-17T11:12:07;95607.13;;;6.21;100.00
3096;BME280;1558;42.700;23.360;2023-03-17T11:14:47;95786.59;;;7.53;100.00
3096;BME280;1558;42.700;23.360;2023-03-17T11:17:19;95791.38;;;8.05;100.00
3096;BME280;1558;42.700;23.360;2023-03-17T11:19:57;95754.34;;;8.38;100.00
3096;BME280;1558;42.700;23.360;2023-03-17T11:22:35;95764.28;;;9.21;100.00
3096;BME280;1558;42.700;23.360;2023-03-17T11:25:09;95785.63;;;9.57;100.00
3096;BME280;1558;42.700;23.360;2023-03-17T11:27:59;95768.47;;;9.36;100.00
3096;BME280;1558;42.700;23.360;2023-03-17T11:30:33;95774.59;;;8.89;100.00
3096;BME280;1558;42.700;23.360;2023-03-17T11:33:09;95776.22;;;8.98;100.00
3096;BME280;1558;42.700;23.360;2023-03-17T11:35:45;95554.06;;;8.10;100.00
3096;BME280;1558;42.700;23.360;2023-03-17T11:38:22;95766.53;;;9.93;100.00
3096;BME280;1558;42.700;23.360;2023-03-17T11:41:09;95772.84;;;9.71;95.33
3096;BME280;1558;42.700;23.360;2023-03-17T11:43:51;95758.13;;;9.94;90.68
3096;BME280;1558;42.700;23.360;2023-03-17T11:46:29;95727.06;;;9.71;86.75
3096;BME280;1558;42.700;23.360;2023-03-17T11:49:06;95753.22;;;9.96;82.54
3096;BME280;1558;42.700;23.360;2023-03-17T11:51:49;95712.81;;;9.79;78.87
3096;BME280;1558;42.700;23.360;2023-03-17T11:54:27;95768.63;;;10.13;73.57
3096;BME280;1558;42.700;23.360;2023-03-17T11:57:02;95764.66;;;9.93;70.74
3096;BME280;1558;42.700;23.360;2023-03-17T11:59:37;95760.88;;;10.37;73.61
3096;BME280;1558;42.700;23.360;2023-03-17T12:02:16;95760.72;;;10.42;67.59
3096;BME280;1558;42.700;23.360;2023-03-17T12:04:51;95759.56;;;10.60;68.97
3096;BME280;1558;42.700;23.360;2023-03-17T12:07:23;95695.13;;;10.67;67.54
3096;BME280;1558;42.700;23.360;2023-03-17T12:10:12;95750.47;;;11.37;65.25
3096;BME280;1558;42.700;23.360;2023-03-17T12:12:47;95742.34;;;10.99;65.08
3096;BME280;1558;42.700;23.360;2023-03-17T12:15:24;95747.03;;;10.73;64.29
3096;BME280;1558;42.700;23.360;2023-03-17T12:17:56;95737.88;;;10.23;62.64
3096;BME280;1558;42.700;23.360;2023-03-17T12:20:30;95745.47;;;10.55;63.54
3096;BME280;1558;42.700;23.360;2023-03-17T12:23:04;95747.81;;;10.73;64.29
3096;BME280;1558;42.700;23.360;2023-03-17T12:25:38;95738.47;;;11.17;63.20
3096;BME280;1558;42.700;23.360;2023-03-17T12:28:13;95741.28;;;11.29;61.62
3096;BME280;1558;42.700;23.360;2023-03-17T12:30:46;95747.34;;;11.55;61.73
3096;BME280;1558;42.700;23.360;2023-03-17T12:33:20;95710.09;;;10.65;59.71
3096;BME280;1558;42.700;23.360;2023-03-17T12:35:51;95737.63;;;10.87;60.64
3096;BME280;1558;42.700;23.360;2023-03-17T12:38:24;95737.16;;;10.77;63.17
3096;BME280;1558;42.700;23.360;2023-03-17T12:41:13;95732.41;;;11.29;62.80
3096;BME280;1558;42.700;23.360;2023-03-17T12:43:58;95719.44;;;11.14;61.63
3096;BME280;1558;42.700;23.360;2023-03-17T12:50:00;95733.44;;;11.36;61.11
3096;BME280;1558;42.700;23.360;2023-03-17T12:52:44;95722.09;;;11.22;60.92
3096;BME280;1558;42.700;23.360;2023-03-17T12:55:16;95730.88;;;11.78;61.09
3096;BME280;1558;42.700;23.360;2023-03-17T12:57:46;95694.25;;;11.60;58.75
3096;BME280;1558;42.700;23.360;2023-03-17T13:00:25;95746.84;;;11.91;58.80
3096;BME280;1558;42.700;23.360;2023-03-17T13:03:13;95739.69;;;12.49;57.31
3096;BME280;1558;42.700;23.360;2023-03-17T13:05:45;95736.16;;;13.02;56.01
3096;BME280;1558;42.700;23.360;2023-03-17T13:08:22;95740.97;;;12.51;54.68
3096;BME280;1558;42.700;23.360;2023-03-17T13:11:15;95746.09;;;11.82;53.87
3096;BME280;1558;42.700;23.360;2023-03-17T13:13:54;95740.94;;;11.60;53.65
3096;BME280;1558;42.700;23.360;2023-03-17T13:16:26;95739.66;;;10.99;54.16
3096;BME280;1558;42.700;23.360;2023-03-17T13:19:19;95721.69;;;9.88;56.95
3096;BME280;1558;42.700;23.360;2023-03-17T13:21:50;95709.28;;;9.70;57.03
3096;BME280;1558;42.700;23.360;2023-03-17T13:24:41;95726.22;;;9.45;57.77
3096;BME280;1558;42.700;23.360;2023-03-17T13:27:13;95736.81;;;9.41;59.78
3096;BME280;1558;42.700;23.360;2023-03-17T13:29:46;95730.19;;;9.56;59.67
3096;BME280;1558;42.700;23.360;2023-03-17T13:32:36;95744.97;;;9.67;60.61
3096;BME280;1558;42.700;23.360;2023-03-17T13:35:35;95724.78;;;9.47;59.36
3096;BME280;1558;42.700;23.360;2023-03-17T13:41:21;95736.03;;;9.02;61.86
3096;BME280;1558;42.700;23.360;2023-03-17T13:44:06;95737.56;;;8.85;63.24
3096;BME280;1558;42.700;23.360;2023-03-17T13:46:40;95737.59;;;8.63;62.23
3096;BME280;1558;42.700;23.360;2023-03-17T13:49:19;95744.78;;;8.46;63.42